createdAt,value
2022-08-18T00:01:14.837Z,10.17
2022-08-18T00:03:56.144Z,8.47
2022-08-18T00:06:29.608Z,9.37
2022-08-18T00:09:00.040Z,8.67
2022-08-18T00:11:41.045Z,9.40
2022-08-18T00:14:22.730Z,9.87
2022-08-18T00:16:54.675Z,9.80
2022-08-18T00:19:45.699Z,10.33
2022-08-18T00:22:16.653Z,9.63
2022-08-18T00:24:48.374Z,11.30
2022-08-18T00:27:23.376Z,9.30
2022-08-18T00:29:53.196Z,10.20
2022-08-18T00:32:24.120Z,9.70
2022-08-18T00:34:54.854Z,9.17
2022-08-18T00:37:25.303Z,9.27
2022-08-18T00:39:54.699Z,10.90
2022-08-18T00:42:30.022Z,10.20
2022-08-18T00:45:01.876Z,9.43
2022-08-18T00:47:33.068Z,10.30
2022-08-18T00:50:17.304Z,9.20
2022-08-18T00:52:53.494Z,10.93
2022-08-18T00:55:23.475Z,10.90
2022-08-18T00:57:55.652Z,9.80
2022-08-18T01:00:23.831Z,11.00
2022-08-18T01:02:57.765Z,10.70
2022-08-18T01:05:32.203Z,10.30
2022-08-18T01:08:00.876Z,10.27
2022-08-18T01:10:29.093Z,10.40
2022-08-18T01:12:59.454Z,11.10
2022-08-18T01:15:30.445Z,10.97
2022-08-18T01:18:19.421Z,9.43
2022-08-18T01:21:15.493Z,10.40
2022-08-18T01:23:46.362Z,9.80
2022-08-18T01:26:16.861Z,10.13
2022-08-18T01:28:47.175Z,10.73
2022-08-18T01:31:33.665Z,10.90
2022-08-18T01:34:02.078Z,11.00
2022-08-18T01:36:30.406Z,10.40
2022-08-18T01:39:00.284Z,10.97
2022-08-18T01:41:30.813Z,11.17
2022-08-18T01:44:00.933Z,11.30
2022-08-18T01:46:31.695Z,9.67
2022-08-18T01:49:01.329Z,10.10
2022-08-18T01:51:34.775Z,11.80
2022-08-18T01:54:12.607Z,11.40
2022-08-18T01:56:42.260Z,10.70
2022-08-18T01:59:14.495Z,10.70
2022-08-18T02:01:50.613Z,12.23
2022-08-18T02:04:41.345Z,11.33
2022-08-18T02:07:11.772Z,10.50
2022-08-18T02:09:42.935Z,10.97
2022-08-18T02:12:12.303Z,11.53
2022-08-18T02:14:40.819Z,11.37
2022-08-18T02:17:11.002Z,10.20
2022-08-18T02:19:42.110Z,10.17
2022-08-18T02:22:12.174Z,11.43
2022-08-18T02:24:42.174Z,11.40
2022-08-18T02:27:12.536Z,11.00
2022-08-18T02:29:41.638Z,12.70
2022-08-18T02:32:09.893Z,11.93
2022-08-18T02:34:38.439Z,11.70
2022-08-18T02:37:06.744Z,10.83
2022-08-18T02:39:35.813Z,11.17
2022-08-18T02:42:06.521Z,11.27
2022-08-18T02:44:35.039Z,12.53
2022-08-18T02:47:03.486Z,11.03
2022-08-18T02:49:31.659Z,12.20
2022-08-18T02:51:59.895Z,12.23
2022-08-18T02:54:28.090Z,11.10
2022-08-18T02:56:57.357Z,12.50
2022-08-18T02:59:28.307Z,12.00
2022-08-18T03:02:00.321Z,10.63
2022-08-18T03:04:31.301Z,12.40
2022-08-18T03:07:01.560Z,12.40
2022-08-18T03:09:31.562Z,11.33
2022-08-18T03:12:00.129Z,11.63
2022-08-18T03:14:30.421Z,10.60
2022-08-18T03:16:58.730Z,11.70
2022-08-18T03:19:28.954Z,12.77
2022-08-18T03:21:59.353Z,11.53
2022-08-18T03:24:32.247Z,12.03
2022-08-18T03:27:01.837Z,12.10
2022-08-18T03:29:32.931Z,12.80
2022-08-18T03:32:02.351Z,13.20
2022-08-18T03:34:32.238Z,12.83
2022-08-18T03:37:00.837Z,11.77
2022-08-18T03:39:29.826Z,12.27
2022-08-18T03:42:01.428Z,12.20
2022-08-18T03:44:33.689Z,11.90
2022-08-18T03:47:03.775Z,11.33
2022-08-18T03:49:33.658Z,11.60
2022-08-18T03:52:02.989Z,11.33
2022-08-18T03:54:33.384Z,12.13
2022-08-18T03:57:02.278Z,12.57
2022-08-18T03:59:33.251Z,11.30
2022-08-18T04:02:04.355Z,11.93
2022-08-18T04:04:32.945Z,11.63
2022-08-18T04:07:05.517Z,11.70
2022-08-18T04:09:35.628Z,11.80
2022-08-18T04:12:16.391Z,13.23
2022-08-18T04:14:49.345Z,12.53
2022-08-18T04:17:20.360Z,13.00
2022-08-18T04:19:48.540Z,12.70
2022-08-18T04:22:18.384Z,13.77
2022-08-18T04:24:47.389Z,15.07
2022-08-18T04:27:18.995Z,12.30
2022-08-18T04:29:48.849Z,12.73
2022-08-18T04:32:17.257Z,12.77
2022-08-18T04:34:45.410Z,13.53
2022-08-18T04:37:15.399Z,12.63
2022-08-18T04:39:45.494Z,13.77
2022-08-18T04:42:13.794Z,13.80
2022-08-18T04:44:42.577Z,13.00
2022-08-18T04:47:13.207Z,14.07
2022-08-18T04:49:41.541Z,14.47
2022-08-18T04:52:40.525Z,15.30
2022-08-18T04:55:11.252Z,13.17
2022-08-18T04:57:39.798Z,12.40
2022-08-18T05:00:12.011Z,13.83
2022-08-18T05:02:41.809Z,14.17
2022-08-18T05:05:11.278Z,12.50
2022-08-18T05:07:45.826Z,12.43
2022-08-18T05:10:17.495Z,13.20
2022-08-18T05:12:48.441Z,13.80
2022-08-18T05:15:17.658Z,13.33
2022-08-18T05:17:50.645Z,13.20
2022-08-18T05:20:20.269Z,13.23
2022-08-18T05:22:49.455Z,12.50
2022-08-18T05:25:17.816Z,14.97
2022-08-18T05:27:46.041Z,13.20
2022-08-18T05:30:15.235Z,15.17
2022-08-18T05:32:49.700Z,11.93
2022-08-18T05:35:24.218Z,13.73
2022-08-18T05:38:08.077Z,12.93
2022-08-18T05:40:37.544Z,14.20
2022-08-18T05:43:07.880Z,12.80
2022-08-18T05:45:36.634Z,13.67
2022-08-18T05:48:05.117Z,13.37
2022-08-18T05:50:38.286Z,14.63
2022-08-18T05:53:14.030Z,14.00
2022-08-18T05:56:07.068Z,13.80
2022-08-18T05:58:42.638Z,13.73
2022-08-18T06:01:17.353Z,13.97
2022-08-18T06:03:50.457Z,14.77
2022-08-18T06:06:25.244Z,13.93
2022-08-18T06:08:58.905Z,14.37
2022-08-18T06:11:27.066Z,14.87
2022-08-18T06:13:59.445Z,14.30
2022-08-18T06:16:45.333Z,15.33
2022-08-18T06:19:29.426Z,14.50
2022-08-18T06:22:06.799Z,13.83
2022-08-18T06:24:42.943Z,14.33
2022-08-18T06:27:19.964Z,13.40
2022-08-18T06:30:04.531Z,12.80
2022-08-18T06:32:48.501Z,14.10
2022-08-18T06:35:25.498Z,13.33
2022-08-18T06:38:22.947Z,13.57
2022-08-18T06:41:01.341Z,14.13
2022-08-18T06:43:34.286Z,13.47
2022-08-18T06:46:04.154Z,13.97
2022-08-18T06:48:38.771Z,12.80
2022-08-18T06:51:09.258Z,13.03
2022-08-18T06:53:58.021Z,12.33
2022-08-18T06:56:34.916Z,13.43
2022-08-18T06:59:20.362Z,12.80
2022-08-18T07:01:53.106Z,12.87
2022-08-18T07:04:40.417Z,12.40
2022-08-18T07:07:18.557Z,12.93
2022-08-18T07:09:49.265Z,12.70
2022-08-18T07:12:26.652Z,13.27
2022-08-18T07:15:01.564Z,13.53
2022-08-18T07:17:42.134Z,11.53
2022-08-18T07:20:21.418Z,12.37
2022-08-18T07:22:55.915Z,14.20
2022-08-18T07:25:29.247Z,12.50
2022-08-18T07:27:57.470Z,12.93
2022-08-18T07:30:33.062Z,13.33
2022-08-18T07:33:09.507Z,14.40
2022-08-18T07:35:42.003Z,12.30
2022-08-18T07:38:40.949Z,12.73
2022-08-18T07:41:13.811Z,11.33
2022-08-18T07:43:51.231Z,12.10
2022-08-18T07:46:28.154Z,11.70
2022-08-18T07:48:58.674Z,12.07
2022-08-18T07:51:43.436Z,11.10
2022-08-18T07:54:48.322Z,11.47
2022-08-18T07:57:26.069Z,12.30
2022-08-18T08:00:02.638Z,11.97
2022-08-18T08:02:55.062Z,12.47
2022-08-18T08:05:39.877Z,11.57
2022-08-18T08:08:25.071Z,11.83
2022-08-18T08:11:09.126Z,11.93
2022-08-18T08:13:55.822Z,12.30
2022-08-18T08:16:36.811Z,10.90
2022-08-18T08:19:16.336Z,11.47
2022-08-18T08:21:52.627Z,11.17
2022-08-18T08:24:30.326Z,11.73
2022-08-18T08:27:06.159Z,12.20
2022-08-18T08:29:45.358Z,11.30
2022-08-18T08:32:16.845Z,12.07
2022-08-18T08:34:50.902Z,11.07
2022-08-18T08:37:23.234Z,12.53
2022-08-18T08:39:57.835Z,10.47
2022-08-18T08:42:38.641Z,10.87
2022-08-18T08:45:16.943Z,10.40
2022-08-18T08:47:53.115Z,10.47
2022-08-18T08:50:26.321Z,10.43
2022-08-18T08:52:59.058Z,10.40
2022-08-18T08:55:30.522Z,10.70
2022-08-18T08:58:11.850Z,10.83
2022-08-18T09:00:43.343Z,9.93
2022-08-18T09:03:30.207Z,10.37
2022-08-18T09:06:06.345Z,10.83
2022-08-18T09:08:51.675Z,10.50
2022-08-18T09:11:54.767Z,11.20
2022-08-18T09:14:53.955Z,9.87
2022-08-18T09:17:43.886Z,10.70
2022-08-18T09:20:29.087Z,9.63
2022-08-18T09:23:09.695Z,10.20
2022-08-18T09:25:48.840Z,10.67
2022-08-18T09:28:19.208Z,9.13
2022-08-18T09:30:55.119Z,10.03
2022-08-18T09:33:54.024Z,9.47
2022-08-18T09:36:34.405Z,9.40
2022-08-18T09:39:38.139Z,8.90
2022-08-18T09:42:14.201Z,10.27
2022-08-18T09:45:04.230Z,10.33
2022-08-18T09:47:58.718Z,9.13
2022-08-18T09:50:56.943Z,9.37
2022-08-18T09:53:53.606Z,9.50
2022-08-18T09:56:58.026Z,10.80
2022-08-18T09:59:53.804Z,9.27
2022-08-18T10:03:11.328Z,9.80
2022-08-18T10:05:39.982Z,9.37
2022-08-18T10:08:38.426Z,9.60
2022-08-18T10:11:30.085Z,9.90
2022-08-18T10:14:15.918Z,8.80
2022-08-18T10:17:21.338Z,9.90
2022-08-18T10:19:58.540Z,11.30
2022-08-18T10:22:39.815Z,9.77
2022-08-18T10:25:22.146Z,9.83
2022-08-18T10:27:55.436Z,10.80
2022-08-18T10:34:05.516Z,9.97
2022-08-18T10:36:51.264Z,9.60
2022-08-18T10:39:22.385Z,9.90
2022-08-18T10:41:58.501Z,9.50
2022-08-18T10:47:33.589Z,8.40
2022-08-18T10:50:05.805Z,8.80
2022-08-18T10:55:54.785Z,9.27
2022-08-18T10:58:37.621Z,8.47
2022-08-18T11:01:25.896Z,8.77
2022-08-18T11:04:13.821Z,10.43
2022-08-18T11:06:48.153Z,8.20
2022-08-18T11:09:26.057Z,10.00
2022-08-18T11:11:59.484Z,7.20
2022-08-18T11:17:44.209Z,5.83
2022-08-18T11:20:15.567Z,6.50
2022-08-18T11:22:56.529Z,6.47
2022-08-18T11:25:29.084Z,7.70
2022-08-18T11:27:57.972Z,6.97
2022-08-18T11:30:32.996Z,6.03
2022-08-18T11:33:04.796Z,5.50
2022-08-18T11:35:35.498Z,4.10
2022-08-18T11:38:06.282Z,4.33
2022-08-18T11:41:10.489Z,4.40
2022-08-18T11:43:41.962Z,4.23
2022-08-18T11:46:30.499Z,4.73
2022-08-18T11:49:01.084Z,4.70
2022-08-18T11:51:32.613Z,4.20
2022-08-18T11:54:04.893Z,4.47
2022-08-18T11:56:37.913Z,3.57
2022-08-18T11:59:11.677Z,4.93
2022-08-18T12:04:40.968Z,4.13
2022-08-18T12:07:13.454Z,4.17
2022-08-18T12:10:18.086Z,4.40
2022-08-18T12:12:35.877Z,4.83
2022-08-18T12:15:25.291Z,4.90
2022-08-18T12:17:59.183Z,4.17
2022-08-18T12:20:28.610Z,4.23
2022-08-18T12:22:58.159Z,4.70
2022-08-18T12:25:26.468Z,5.50
2022-08-18T12:27:54.787Z,4.40
2022-08-18T12:33:12.869Z,4.80
2022-08-18T12:35:42.269Z,5.60
2022-08-18T12:38:13.267Z,5.13
2022-08-18T12:40:43.317Z,4.77
2022-08-18T12:43:37.341Z,5.33
2022-08-18T12:46:11.950Z,4.80
2022-08-18T12:48:41.593Z,4.10
2022-08-18T12:51:10.970Z,3.90
2022-08-18T12:56:31.847Z,4.63
2022-08-18T12:59:03.937Z,4.47
2022-08-18T13:01:33.414Z,5.37
2022-08-18T13:04:12.552Z,4.80
2022-08-18T13:06:59.520Z,5.10
2022-08-18T13:09:35.029Z,4.67
2022-08-18T13:12:19.629Z,5.07
2022-08-18T13:14:50.876Z,4.67
2022-08-18T13:17:29.168Z,5.27
2022-08-18T13:20:05.669Z,5.43
2022-08-18T13:22:34.246Z,7.60
2022-08-18T13:25:03.546Z,6.10
2022-08-18T13:27:32.903Z,4.63
2022-08-18T13:30:29.654Z,5.17
2022-08-18T13:32:58.784Z,5.07
2022-08-18T13:35:38.332Z,5.40
2022-08-18T13:38:17.433Z,5.40
2022-08-18T13:40:48.455Z,4.97
2022-08-18T13:43:18.098Z,5.30
2022-08-18T13:45:53.193Z,5.40
2022-08-18T13:48:25.371Z,4.90
2022-08-18T13:50:56.778Z,5.80
2022-08-18T13:53:26.353Z,5.20
2022-08-18T13:55:58.994Z,5.40
2022-08-18T13:58:28.917Z,5.37
2022-08-18T14:01:15.931Z,6.00
2022-08-18T14:03:47.880Z,5.73
2022-08-18T14:06:22.562Z,5.50
2022-08-18T14:08:51.956Z,5.90
2022-08-18T14:11:21.271Z,5.73
2022-08-18T14:13:49.933Z,5.40
2022-08-18T14:16:19.527Z,5.83
2022-08-18T14:19:09.751Z,5.00
2022-08-18T14:22:01.247Z,5.00
2022-08-18T14:24:49.126Z,7.33
2022-08-18T14:27:17.970Z,6.47
2022-08-18T14:29:48.703Z,8.80
2022-08-18T14:32:29.308Z,8.60
2022-08-18T14:35:00.698Z,9.37
2022-08-18T14:37:31.402Z,8.30
2022-08-18T14:40:03.927Z,9.93
2022-08-18T14:42:41.668Z,8.73
2022-08-18T14:45:31.266Z,10.17
2022-08-18T14:48:04.456Z,9.80
2022-08-18T14:50:36.904Z,8.50
2022-08-18T14:53:07.013Z,7.10
2022-08-18T14:55:35.873Z,8.90
2022-08-18T14:58:07.303Z,10.00
2022-08-18T15:00:53.304Z,8.43
2022-08-18T15:03:31.082Z,7.67
2022-08-18T15:06:04.847Z,7.43
2022-08-18T15:08:36.402Z,7.47
2022-08-18T15:11:11.642Z,8.67
2022-08-18T15:13:43.462Z,8.43
2022-08-18T15:16:13.787Z,9.63
2022-08-18T15:18:42.679Z,9.23
2022-08-18T15:21:38.863Z,9.03
2022-08-18T15:24:26.390Z,6.33
2022-08-18T15:26:56.731Z,7.90
2022-08-18T15:29:29.194Z,9.00
2022-08-18T15:32:02.228Z,9.70
2022-08-18T15:34:46.067Z,7.80
2022-08-18T15:37:15.848Z,8.33
2022-08-18T15:39:55.530Z,8.00
2022-08-18T15:42:24.569Z,9.07
2022-08-18T15:44:53.895Z,9.73
2022-08-18T15:47:25.084Z,9.37
2022-08-18T15:49:54.909Z,8.67
2022-08-18T15:52:24.573Z,6.90
2022-08-18T15:54:57.106Z,7.47
2022-08-18T15:57:38.597Z,6.70
2022-08-18T16:00:12.480Z,6.93
2022-08-18T16:02:44.757Z,7.57
2022-08-18T16:05:17.979Z,8.00
2022-08-18T16:07:47.738Z,7.40
2022-08-18T16:10:19.109Z,8.47
2022-08-18T16:12:48.313Z,7.83
2022-08-18T16:15:19.690Z,7.37
2022-08-18T16:17:50.866Z,6.73
2022-08-18T16:20:20.224Z,8.20
2022-08-18T16:22:49.211Z,7.73
2022-08-18T16:25:18.931Z,7.50
2022-08-18T16:27:47.897Z,7.83
2022-08-18T16:30:18.980Z,6.87
2022-08-18T16:32:47.421Z,6.90
2022-08-18T16:35:17.173Z,7.17
2022-08-18T16:37:46.733Z,7.57
2022-08-18T16:40:15.950Z,7.80
2022-08-18T16:42:45.883Z,6.90
2022-08-18T16:45:16.085Z,8.10
2022-08-18T16:47:44.226Z,7.47
2022-08-18T16:50:18.029Z,7.03
2022-08-18T16:52:46.284Z,8.13
2022-08-18T16:55:14.514Z,8.60
2022-08-18T16:58:02.795Z,7.70
2022-08-18T17:00:55.049Z,7.80
2022-08-18T17:03:40.957Z,7.60
2022-08-18T17:06:12.278Z,9.07
2022-08-18T17:08:42.021Z,7.83
2022-08-18T17:11:12.622Z,11.00
2022-08-18T17:13:43.138Z,9.90
2022-08-18T17:16:12.526Z,9.97
2022-08-18T17:18:41.091Z,10.37
2022-08-18T17:21:13.224Z,9.47
2022-08-18T17:23:42.946Z,10.97
2022-08-18T17:26:17.684Z,10.63
2022-08-18T17:28:53.729Z,10.80
2022-08-18T17:31:25.296Z,11.00
2022-08-18T17:33:58.529Z,9.40
2022-08-18T17:36:34.396Z,10.50
2022-08-18T17:39:06.241Z,10.67
2022-08-18T17:41:57.021Z,11.30
2022-08-18T17:44:28.660Z,10.93
2022-08-18T17:47:02.332Z,10.23
2022-08-18T17:49:54.412Z,10.93
2022-08-18T17:52:45.760Z,12.50
2022-08-18T17:55:26.191Z,11.30
2022-08-18T17:58:01.645Z,10.77
2022-08-18T18:00:32.567Z,11.10
2022-08-18T18:03:01.219Z,11.10
2022-08-18T18:05:36.561Z,11.40
2022-08-18T18:08:05.888Z,11.67
2022-08-18T18:10:51.175Z,10.20
2022-08-18T18:13:28.810Z,10.83
2022-08-18T18:16:00.814Z,11.50
2022-08-18T18:18:36.829Z,11.10
2022-08-18T18:21:08.896Z,10.63
2022-08-18T18:23:41.506Z,11.77
2022-08-18T18:26:34.699Z,11.87
2022-08-18T18:29:19.179Z,13.60
2022-08-18T18:32:00.465Z,11.87
2022-08-18T18:34:39.310Z,12.70
2022-08-18T18:37:25.974Z,11.67
2022-08-18T18:39:59.225Z,12.17
2022-08-18T18:42:30.996Z,10.37
2022-08-18T18:45:01.425Z,11.27
2022-08-18T18:47:47.360Z,11.63
2022-08-18T18:50:23.874Z,12.33
2022-08-18T18:53:03.669Z,11.27
2022-08-18T18:55:37.541Z,11.67
2022-08-18T18:58:18.440Z,12.23
2022-08-18T19:00:54.056Z,12.23
2022-08-18T19:03:33.897Z,11.80
2022-08-18T19:06:19.623Z,11.50
2022-08-18T19:08:59.615Z,12.97
2022-08-18T19:11:34.602Z,12.33
2022-08-18T19:14:09.583Z,12.07
2022-08-18T19:16:42.546Z,12.10
2022-08-18T19:19:36.708Z,12.40
2022-08-18T19:22:09.822Z,11.57
2022-08-18T19:24:46.306Z,11.80
2022-08-18T19:27:23.720Z,12.10
2022-08-18T19:29:58.138Z,11.03
2022-08-18T19:32:35.018Z,10.87
2022-08-18T19:35:10.570Z,11.07
2022-08-18T19:38:01.874Z,11.00
2022-08-18T19:40:43.209Z,11.30
2022-08-18T19:43:24.852Z,11.60
2022-08-18T19:45:57.824Z,9.47
2022-08-18T19:48:31.153Z,9.97
2022-08-18T19:51:07.324Z,10.77
2022-08-18T19:54:04.247Z,10.57
2022-08-18T19:56:48.947Z,11.00
2022-08-18T19:59:45.316Z,10.63
2022-08-18T20:02:33.956Z,11.13
2022-08-18T20:05:14.360Z,9.70
2022-08-18T20:08:15.534Z,10.50
2022-08-18T20:11:08.253Z,10.53
2022-08-18T20:13:42.907Z,10.73
2022-08-18T20:16:44.137Z,9.83
2022-08-18T20:19:40.483Z,9.30
2022-08-18T20:22:16.164Z,11.67
2022-08-18T20:24:57.423Z,10.67
2022-08-18T20:27:35.891Z,10.40
2022-08-18T20:30:26.320Z,10.80
2022-08-18T20:33:15.448Z,11.03
2022-08-18T20:35:52.609Z,11.00
2022-08-18T20:38:33.786Z,11.03
2022-08-18T20:41:50.464Z,9.93
2022-08-18T20:44:37.971Z,10.20
2022-08-18T20:47:29.217Z,9.80
2022-08-18T20:50:19.137Z,11.03
2022-08-18T20:52:55.688Z,10.80
2022-08-18T20:55:31.073Z,10.83
2022-08-18T20:58:08.260Z,10.17
2022-08-18T21:00:42.629Z,9.77
2022-08-18T21:03:14.711Z,10.47
2022-08-18T21:05:46.424Z,10.00
2022-08-18T21:08:26.429Z,10.27
2022-08-18T21:10:57.854Z,10.47
2022-08-18T21:13:38.380Z,10.40
2022-08-18T21:16:07.055Z,11.23
2022-08-18T21:18:35.316Z,9.90
2022-08-18T21:21:07.330Z,10.27
2022-08-18T21:23:40.314Z,9.33
2022-08-18T21:26:13.186Z,9.60
2022-08-18T21:28:47.056Z,9.73
2022-08-18T21:31:41.654Z,9.00
2022-08-18T21:34:18.590Z,9.50
2022-08-18T21:36:52.483Z,9.13
2022-08-18T21:39:21.311Z,9.97
2022-08-18T21:41:53.144Z,8.97
2022-08-18T21:44:25.302Z,10.00
2022-08-18T21:47:05.622Z,10.10
2022-08-18T21:49:34.005Z,9.77
2022-08-18T21:52:02.234Z,9.20
2022-08-18T21:54:34.773Z,9.07
2022-08-18T21:57:19.729Z,9.27
2022-08-18T22:00:17.181Z,10.73
2022-08-18T22:02:46.174Z,9.73
2022-08-18T22:05:27.099Z,10.10
2022-08-18T22:07:55.454Z,10.37
2022-08-18T22:10:45.309Z,9.20
2022-08-18T22:13:37.491Z,9.40
2022-08-18T22:16:27.042Z,9.80
2022-08-18T22:19:11.534Z,9.80
2022-08-18T22:21:43.336Z,10.80
2022-08-18T22:24:21.918Z,9.20
2022-08-18T22:27:04.407Z,9.70
2022-08-18T22:29:45.683Z,10.90
2022-08-18T22:32:15.898Z,10.00
2022-08-18T22:34:44.597Z,10.20
2022-08-18T22:37:15.439Z,10.80
2022-08-18T22:39:52.464Z,10.30
2022-08-18T22:42:23.119Z,10.50
2022-08-18T22:44:51.758Z,10.60
2022-08-18T22:47:23.917Z,11.23
2022-08-18T22:49:52.252Z,11.30
2022-08-18T22:52:29.706Z,10.33
2022-08-18T22:54:58.771Z,9.80
2022-08-18T22:57:28.839Z,10.80
2022-08-18T22:59:58.211Z,9.50
2022-08-18T23:02:29.778Z,10.07
2022-08-18T23:04:57.981Z,10.20
2022-08-18T23:07:26.462Z,10.07
2022-08-18T23:09:54.758Z,9.07
2022-08-18T23:12:23.654Z,8.73
2022-08-18T23:14:51.852Z,10.50
2022-08-18T23:17:21.421Z,9.30
2022-08-18T23:19:52.049Z,9.70
2022-08-18T23:22:20.597Z,8.80
2022-08-18T23:24:48.858Z,9.97
2022-08-18T23:27:18.338Z,10.30
2022-08-18T23:29:46.810Z,9.07
2022-08-18T23:32:15.326Z,9.50
2022-08-18T23:34:43.487Z,9.80
2022-08-18T23:37:13.066Z,8.67
2022-08-18T23:39:43.927Z,9.50
2022-08-18T23:42:13.081Z,10.00
2022-08-18T23:44:42.260Z,8.67
2022-08-18T23:47:10.510Z,9.30
2022-08-18T23:49:38.688Z,8.43
2022-08-18T23:52:08.114Z,9.47
2022-08-18T23:54:37.678Z,8.70
2022-08-18T23:57:06.403Z,9.00
2022-08-18T23:59:34.590Z,8.83
